createdAt,value
2024-03-09T00:04:54.313Z,68
2024-03-09T00:11:16.303Z,68.74
2024-03-09T00:17:36.387Z,69.12
2024-03-09T00:23:58.242Z,68.69
2024-03-09T00:30:18.257Z,69.37
2024-03-09T00:36:40.242Z,68.99
2024-03-09T00:43:00.264Z,69.57
2024-03-09T00:49:22.242Z,69.16
2024-03-09T00:55:42.270Z,69.63
2024-03-09T01:02:04.392Z,69.13
2024-03-09T01:08:24.302Z,68.36
2024-03-09T01:14:46.292Z,68.26
2024-03-09T01:21:06.224Z,68.29
2024-03-09T01:27:28.226Z,68.41
2024-03-09T01:33:48.274Z,67.88
2024-03-09T01:40:10.941Z,67.99
2024-03-09T01:46:30.267Z,68.57
2024-03-09T01:52:52.338Z,68.19
2024-03-09T01:59:12.272Z,67.54
2024-03-09T02:05:34.257Z,67.05
2024-03-09T02:11:54.316Z,67.05
2024-03-09T02:18:16.308Z,67.4
2024-03-09T02:24:36.243Z,66.86
2024-03-09T02:30:58.299Z,66.6
2024-03-09T02:37:20.568Z,66.65
2024-03-09T02:43:40.282Z,66.63
2024-03-09T02:50:00.423Z,66.07
2024-03-09T02:56:22.237Z,65.71
2024-03-09T03:02:42.310Z,65.59
2024-03-09T03:09:04.303Z,65.84
2024-03-09T03:15:24.273Z,65.45
2024-03-09T03:21:46.238Z,66.02
2024-03-09T03:28:06.300Z,66.31
2024-03-09T03:34:29.282Z,65.98
2024-03-09T03:40:48.242Z,66.33
2024-03-09T03:47:10.340Z,67.16
2024-03-09T03:53:30.234Z,67.3
2024-03-09T04:09:56.666Z,67.77
2024-03-09T04:16:16.199Z,67.45
2024-03-09T04:22:38.238Z,68.01
2024-03-09T04:28:58.273Z,68.15
2024-03-09T04:35:20.266Z,68.06
2024-03-09T04:41:40.228Z,67.97
2024-03-09T04:48:02.378Z,68.25
2024-03-09T04:54:22.238Z,68.19
2024-03-09T05:00:44.354Z,68.63
2024-03-09T05:07:04.328Z,68.57
2024-03-09T05:13:26.250Z,68.93
2024-03-09T05:19:46.567Z,68.56
2024-03-09T05:26:08.321Z,68.52
2024-03-09T05:32:28.244Z,68.63
2024-03-09T05:38:50.209Z,68.57
2024-03-09T05:45:10.367Z,68.8
2024-03-09T05:51:32.250Z,68.93
2024-03-09T05:57:52.207Z,69.4
2024-03-09T06:04:14.257Z,69.31
2024-03-09T06:10:36.657Z,69.62
2024-03-09T06:16:56.283Z,69.5
2024-03-09T06:23:16.329Z,69.49
2024-03-09T06:29:38.242Z,69.8
2024-03-09T06:35:58.271Z,69.85
2024-03-09T06:42:20.400Z,69.58
2024-03-09T06:48:40.200Z,69.97
2024-03-09T06:55:02.309Z,70.34
2024-03-09T07:01:22.381Z,69.81
2024-03-09T07:07:44.275Z,69.5
2024-03-09T07:14:04.293Z,69.46
2024-03-09T07:20:26.273Z,69.36
2024-03-09T07:26:46.287Z,69.2
2024-03-09T07:33:08.373Z,69.41
2024-03-09T07:39:28.387Z,68.56
2024-03-09T07:45:50.297Z,67.95
2024-03-09T07:52:10.222Z,67.29
2024-03-09T07:58:32.391Z,66.94
2024-03-09T08:04:52.293Z,66.11
2024-03-09T08:11:14.437Z,64.64
2024-03-09T08:17:34.275Z,63.95
2024-03-09T08:23:56.272Z,62.76
2024-03-09T08:30:16.480Z,62.18
2024-03-09T08:36:38.256Z,61.65
2024-03-09T08:42:58.268Z,61.02
2024-03-09T08:49:20.282Z,60.01
2024-03-09T08:55:40.353Z,60.06
2024-03-09T09:18:43.233Z,57.67
2024-03-09T09:25:05.207Z,56.41
2024-03-09T09:31:25.248Z,56.26
2024-03-09T09:37:47.252Z,55.99
2024-03-09T09:44:07.252Z,55.3
2024-03-09T09:50:29.232Z,55.1
2024-03-09T09:56:49.340Z,54.07
2024-03-09T10:03:11.228Z,53.89
2024-03-09T10:09:32.476Z,52.79
2024-03-09T10:15:53.426Z,51.74
2024-03-09T10:22:13.215Z,51.84
2024-03-09T10:28:35.254Z,52.14
2024-03-09T10:34:55.306Z,50.98
2024-03-09T10:41:17.316Z,48.68
2024-03-09T10:47:37.253Z,48.9
2024-03-09T10:53:59.341Z,48.42
2024-03-09T11:00:19.212Z,48.62
2024-03-09T11:06:41.197Z,47.39
2024-03-09T11:13:01.273Z,47.42
2024-03-09T11:19:23.263Z,45.93
2024-03-09T11:25:43.248Z,46.58
2024-03-09T11:32:05.494Z,46.36
2024-03-09T11:38:25.230Z,45.41
2024-03-09T11:44:47.279Z,43.85
2024-03-09T11:51:07.252Z,43.15
2024-03-09T11:57:29.245Z,42.59
2024-03-09T12:03:49.206Z,42.74
2024-03-09T12:10:11.262Z,41.54
2024-03-09T12:16:31.209Z,42.36
2024-03-09T12:22:53.227Z,42
2024-03-09T12:29:13.566Z,40.98
2024-03-09T12:35:35.242Z,39.97
2024-03-09T12:41:55.424Z,39.6
2024-03-09T12:48:17.283Z,40.25
2024-03-09T12:54:37.266Z,39.33
2024-03-09T13:00:59.430Z,39.18
2024-03-09T13:07:19.248Z,37.48
2024-03-09T13:13:41.288Z,37.99
2024-03-09T13:20:01.232Z,37.91
2024-03-09T13:26:23.285Z,38
2024-03-09T13:32:43.215Z,36.98
2024-03-09T13:39:05.222Z,37.5
2024-03-09T13:45:25.260Z,38.92
2024-03-09T13:51:47.198Z,37.55
2024-03-09T13:58:07.259Z,36.5
2024-03-09T14:04:29.256Z,36.07
2024-03-09T14:10:49.280Z,35.45
2024-03-09T14:17:11.286Z,34.81
2024-03-09T14:23:31.301Z,33.64
2024-03-09T14:29:53.202Z,34.01
2024-03-09T14:47:05.246Z,34.98
2024-03-09T14:53:26.217Z,35.32
2024-03-09T14:59:46.222Z,35.39
2024-03-09T15:06:08.252Z,35.66
2024-03-09T15:12:28.238Z,36.75
2024-03-09T15:18:50.232Z,38.02
2024-03-09T15:25:10.270Z,38.71
2024-03-09T15:31:32.405Z,39.18
2024-03-09T15:37:52.216Z,40.16
2024-03-09T15:44:14.276Z,40.89
2024-03-09T15:50:34.267Z,41.34
2024-03-09T15:56:56.225Z,41.94
2024-03-09T16:03:16.252Z,42.75
2024-03-09T16:09:38.234Z,42.34
2024-03-09T16:15:58.194Z,42.84
2024-03-09T16:22:20.351Z,43.78
2024-03-09T16:28:40.249Z,43.48
2024-03-09T16:35:02.258Z,44.11
2024-03-09T16:41:22.305Z,45.09
2024-03-09T16:47:44.228Z,45.66
2024-03-09T16:54:04.232Z,46.43
2024-03-09T17:00:26.328Z,46.67
2024-03-09T17:06:46.210Z,47.28
2024-03-09T17:13:08.248Z,47.61
2024-03-09T17:19:28.356Z,48.07
2024-03-09T17:25:50.213Z,48.26
2024-03-09T17:32:10.265Z,49.25
2024-03-09T17:38:32.300Z,49.15
2024-03-09T17:44:52.224Z,49.68
2024-03-09T17:51:14.201Z,49.87
2024-03-09T17:57:34.276Z,50.28
2024-03-09T18:03:56.291Z,49.46
2024-03-09T18:10:16.250Z,50.04
2024-03-09T18:16:38.304Z,50.17
2024-03-09T18:22:58.204Z,49.49
2024-03-09T18:29:20.284Z,50.45
2024-03-09T18:35:40.352Z,51.25
2024-03-09T18:42:02.271Z,51.25
2024-03-09T18:48:24.908Z,50.34
2024-03-09T18:54:44.275Z,51.71
2024-03-09T19:01:04.227Z,51.18
2024-03-09T19:07:26.216Z,51.66
2024-03-09T19:13:46.279Z,51.29
2024-03-09T19:20:08.238Z,51.22
2024-03-09T19:26:28.224Z,51.52
2024-03-09T19:32:50.334Z,53.19
2024-03-09T19:50:16.251Z,53.79
2024-03-09T19:56:37.202Z,54.48
2024-03-09T20:02:57.192Z,54.51
2024-03-09T20:09:19.287Z,54.5
2024-03-09T20:15:39.295Z,54.63
2024-03-09T20:22:01.234Z,54.67
2024-03-09T20:28:21.266Z,54.6
2024-03-09T20:34:43.269Z,55.09
2024-03-09T20:41:03.211Z,55.82
2024-03-09T20:47:25.311Z,55.38
2024-03-09T20:53:45.228Z,55.88
2024-03-09T21:00:07.207Z,55.81
2024-03-09T21:06:27.322Z,56.2
2024-03-09T21:12:49.255Z,56.71
2024-03-09T21:19:09.256Z,56.84
2024-03-09T21:25:31.342Z,56.65
2024-03-09T21:31:51.247Z,57.04
2024-03-09T21:38:13.238Z,57.2
2024-03-09T21:44:33.291Z,57.47
2024-03-09T21:51:03.343Z,57.39
2024-03-09T21:57:15.316Z,56.84
2024-03-09T22:03:37.270Z,56.75
2024-03-09T22:09:57.202Z,56.35
2024-03-09T22:16:19.254Z,56.76
2024-03-09T22:22:39.272Z,56.71
2024-03-09T22:29:01.276Z,57.11
2024-03-09T22:35:21.313Z,57.33
2024-03-09T22:41:43.279Z,57.82
2024-03-09T22:48:03.224Z,58.14
2024-03-09T22:54:25.212Z,58.36
2024-03-09T23:19:56.376Z,60.26
2024-03-09T23:26:16.261Z,60.91
2024-03-09T23:32:38.231Z,60.29
2024-03-09T23:38:58.310Z,60.46
2024-03-09T23:45:20.223Z,60.21
2024-03-09T23:51:40.228Z,60.53
2024-03-09T23:58:02.265Z,60.86
